createdAt,value
2022-10-06T00:00:00.845Z,0.52
2022-10-06T00:02:27.278Z,0.68
2022-10-06T00:04:53.644Z,0.47
2022-10-06T00:07:19.995Z,0.90
2022-10-06T00:09:46.600Z,0.67
2022-10-06T00:12:13.228Z,0.60
2022-10-06T00:14:39.594Z,0.70
2022-10-06T00:17:05.956Z,0.70
2022-10-06T00:19:32.333Z,0.45
2022-10-06T00:21:58.671Z,0.80
2022-10-06T00:24:25.030Z,0.60
2022-10-06T00:26:51.418Z,0.60
2022-10-06T00:29:18.710Z,0.80
2022-10-06T00:31:45.066Z,0.82
2022-10-06T00:34:11.557Z,0.50
2022-10-06T00:36:37.873Z,1.00
2022-10-06T00:39:04.209Z,0.88
2022-10-06T00:41:31.433Z,0.70
2022-10-06T00:43:58.978Z,0.60
2022-10-06T00:46:46.110Z,0.63
2022-10-06T00:49:20.778Z,0.85
2022-10-06T00:52:00.300Z,0.70
2022-10-06T00:54:27.659Z,0.50
2022-10-06T00:56:54.229Z,1.30
2022-10-06T00:59:20.740Z,0.60
2022-10-06T01:02:00.002Z,0.82
2022-10-06T01:04:27.091Z,0.98
2022-10-06T01:06:57.518Z,0.52
2022-10-06T01:09:24.672Z,0.70
2022-10-06T01:11:55.888Z,0.70
2022-10-06T01:14:24.609Z,0.65
2022-10-06T01:16:59.474Z,0.80
2022-10-06T01:19:47.259Z,0.70
2022-10-06T01:22:16.572Z,0.50
2022-10-06T01:24:46.611Z,0.60
2022-10-06T01:27:15.816Z,0.70
2022-10-06T01:29:42.236Z,0.82
2022-10-06T01:32:09.483Z,0.90
2022-10-06T01:34:35.878Z,0.55
2022-10-06T01:37:02.198Z,0.50
2022-10-06T01:39:28.552Z,0.55
2022-10-06T01:41:55.364Z,0.65
2022-10-06T01:44:21.655Z,0.52
2022-10-06T01:46:48.037Z,0.50
2022-10-06T01:49:14.382Z,0.70
2022-10-06T01:51:40.820Z,0.65
2022-10-06T01:54:07.153Z,0.40
2022-10-06T01:56:33.476Z,0.43
2022-10-06T01:58:59.780Z,0.57
2022-10-06T02:01:26.262Z,0.50
2022-10-06T02:03:52.623Z,0.70
2022-10-06T02:06:19.001Z,1.10
2022-10-06T02:08:46.117Z,0.90
2022-10-06T02:11:12.948Z,0.55
2022-10-06T02:13:39.586Z,0.37
2022-10-06T02:16:08.093Z,1.10
2022-10-06T02:18:35.392Z,0.50
2022-10-06T02:21:02.850Z,0.68
2022-10-06T02:23:30.190Z,0.52
2022-10-06T02:26:06.556Z,0.57
2022-10-06T02:28:33.530Z,0.63
2022-10-06T02:31:06.158Z,0.90
2022-10-06T02:33:33.334Z,0.47
2022-10-06T02:36:00.112Z,0.98
2022-10-06T02:38:27.491Z,0.67
2022-10-06T02:40:54.332Z,0.40
2022-10-06T02:43:21.980Z,0.63
2022-10-06T02:46:00.008Z,0.60
2022-10-06T02:48:27.875Z,0.63
2022-10-06T02:50:55.929Z,0.77
2022-10-06T02:53:22.516Z,0.70
2022-10-06T02:55:48.870Z,0.60
2022-10-06T02:58:15.176Z,0.80
2022-10-06T03:00:41.492Z,0.90
2022-10-06T03:03:07.834Z,0.60
2022-10-06T03:05:34.291Z,0.50
2022-10-06T03:08:00.604Z,0.73
2022-10-06T03:10:26.919Z,0.60
2022-10-06T03:12:53.242Z,0.55
2022-10-06T03:15:21.266Z,0.53
2022-10-06T03:17:50.496Z,0.50
2022-10-06T03:20:16.809Z,0.70
2022-10-06T03:22:43.243Z,0.60
2022-10-06T03:25:09.986Z,0.95
2022-10-06T03:27:36.434Z,0.80
2022-10-06T03:30:04.234Z,0.82
2022-10-06T03:32:30.632Z,0.82
2022-10-06T03:34:57.074Z,0.50
2022-10-06T03:37:23.543Z,0.75
2022-10-06T03:39:49.859Z,0.50
2022-10-06T03:42:16.155Z,0.40
2022-10-06T03:44:42.471Z,0.50
2022-10-06T03:47:12.093Z,0.60
2022-10-06T03:49:41.044Z,0.60
2022-10-06T03:52:07.375Z,0.60
2022-10-06T03:54:33.694Z,0.70
2022-10-06T03:57:00.059Z,0.65
2022-10-06T03:59:29.042Z,0.50
2022-10-06T04:01:56.076Z,0.75
2022-10-06T04:04:22.439Z,0.83
2022-10-06T04:06:48.803Z,0.70
2022-10-06T04:09:16.028Z,0.70
2022-10-06T04:11:43.570Z,0.60
2022-10-06T04:14:13.052Z,0.52
2022-10-06T04:16:42.178Z,0.70
2022-10-06T04:19:10.801Z,0.50
2022-10-06T04:21:38.903Z,0.60
2022-10-06T04:24:06.750Z,0.70
2022-10-06T04:26:36.723Z,0.47
2022-10-06T04:29:03.990Z,0.70
2022-10-06T04:31:34.258Z,0.60
2022-10-06T04:34:01.467Z,0.85
2022-10-06T04:36:31.232Z,0.80
2022-10-06T04:39:00.006Z,0.80
2022-10-06T04:41:31.871Z,0.43
2022-10-06T04:43:58.895Z,0.40
2022-10-06T04:49:18.610Z,1.00
2022-10-06T04:51:46.885Z,0.77
2022-10-06T04:54:13.237Z,0.60
2022-10-06T04:56:39.833Z,0.90
2022-10-06T04:59:06.174Z,0.60
2022-10-06T05:01:35.478Z,0.47
2022-10-06T05:04:03.187Z,0.65
2022-10-06T05:06:32.450Z,0.70
2022-10-06T05:09:01.391Z,0.80
2022-10-06T05:11:28.351Z,0.52
2022-10-06T05:13:56.406Z,0.75
2022-10-06T05:16:24.901Z,0.77
2022-10-06T05:18:51.355Z,0.87
2022-10-06T05:21:21.092Z,0.70
2022-10-06T05:23:48.025Z,0.82
2022-10-06T05:26:17.847Z,0.63
2022-10-06T05:28:44.499Z,0.70
2022-10-06T05:31:13.345Z,0.63
2022-10-06T05:33:40.236Z,0.63
2022-10-06T05:36:10.442Z,0.98
2022-10-06T05:38:37.047Z,0.73
2022-10-06T05:41:04.963Z,0.60
2022-10-06T05:43:32.412Z,1.00
2022-10-06T05:46:01.243Z,0.93
2022-10-06T05:48:29.316Z,0.77
2022-10-06T05:51:06.552Z,0.60
2022-10-06T05:53:35.511Z,0.63
2022-10-06T05:56:03.741Z,0.70
2022-10-06T05:58:31.519Z,0.60
2022-10-06T06:01:06.948Z,0.70
2022-10-06T06:03:33.439Z,0.93
2022-10-06T06:05:59.740Z,0.90
2022-10-06T06:08:26.456Z,0.60
2022-10-06T06:10:53.113Z,1.27
2022-10-06T06:13:21.504Z,1.02
2022-10-06T06:16:04.269Z,0.73
2022-10-06T06:18:32.378Z,0.70
2022-10-06T06:21:00.766Z,0.77
2022-10-06T06:23:39.020Z,0.88
2022-10-06T06:26:09.122Z,1.27
2022-10-06T06:28:37.097Z,0.85
2022-10-06T06:31:07.232Z,0.80
2022-10-06T06:33:37.572Z,0.60
2022-10-06T06:36:18.831Z,0.93
2022-10-06T06:38:53.276Z,0.85
2022-10-06T06:41:28.463Z,1.00
2022-10-06T06:43:55.428Z,1.10
2022-10-06T06:46:24.882Z,1.50
2022-10-06T06:48:52.393Z,1.55
2022-10-06T06:51:22.389Z,1.67
2022-10-06T06:53:49.914Z,1.10
2022-10-06T06:56:16.283Z,0.93
2022-10-06T06:58:48.967Z,2.17
2022-10-06T07:01:18.168Z,1.35
2022-10-06T07:04:03.372Z,0.77
2022-10-06T07:06:31.093Z,0.70
2022-10-06T07:08:59.546Z,0.90
2022-10-06T07:11:44.052Z,1.00
2022-10-06T07:14:12.511Z,0.70
2022-10-06T07:16:57.530Z,0.90
2022-10-06T07:19:42.896Z,1.00
2022-10-06T07:22:27.749Z,0.90
2022-10-06T07:25:07.913Z,1.30
2022-10-06T07:27:42.361Z,1.67
2022-10-06T07:30:20.323Z,1.27
2022-10-06T07:32:47.985Z,1.30
2022-10-06T07:35:16.575Z,1.20
2022-10-06T07:37:43.888Z,1.07
2022-10-06T07:40:11.074Z,0.80
2022-10-06T07:42:48.565Z,0.70
2022-10-06T07:45:35.551Z,1.67
2022-10-06T07:48:02.584Z,1.98
2022-10-06T07:50:29.078Z,0.50
2022-10-06T07:52:55.728Z,0.63
2022-10-06T07:55:22.065Z,0.80
2022-10-06T07:57:50.825Z,0.70
2022-10-06T08:00:20.816Z,1.10
2022-10-06T08:02:47.231Z,1.00
2022-10-06T08:05:13.612Z,1.02
2022-10-06T08:07:40.874Z,1.42
2022-10-06T08:10:07.463Z,1.30
2022-10-06T08:12:33.904Z,0.93
2022-10-06T08:15:06.963Z,1.07
2022-10-06T08:17:36.366Z,1.48
2022-10-06T08:20:07.491Z,0.90
2022-10-06T08:22:36.008Z,1.02
2022-10-06T08:25:07.130Z,0.90
2022-10-06T08:27:35.232Z,0.70
2022-10-06T08:30:02.448Z,1.10
2022-10-06T08:32:28.900Z,0.82
2022-10-06T08:34:55.586Z,1.23
2022-10-06T08:37:23.762Z,1.35
2022-10-06T08:39:51.288Z,0.90
2022-10-06T08:42:31.833Z,0.95
2022-10-06T08:45:05.908Z,1.02
2022-10-06T08:47:36.978Z,0.95
2022-10-06T08:50:05.558Z,1.25
2022-10-06T08:52:47.329Z,1.30
2022-10-06T08:55:49.947Z,0.90
2022-10-06T08:58:18.880Z,1.25
2022-10-06T09:00:45.287Z,0.70
2022-10-06T09:03:23.704Z,1.00
2022-10-06T09:05:56.815Z,0.80
2022-10-06T09:08:53.588Z,1.02
2022-10-06T09:11:41.752Z,1.10
2022-10-06T09:14:18.027Z,0.95
2022-10-06T09:16:50.249Z,0.90
2022-10-06T09:19:24.807Z,0.80
2022-10-06T09:21:53.972Z,0.80
2022-10-06T09:24:30.943Z,1.10
2022-10-06T09:26:58.949Z,1.00
2022-10-06T09:29:27.839Z,0.82
2022-10-06T09:31:54.384Z,1.50
2022-10-06T09:34:40.638Z,0.60
2022-10-06T09:37:12.786Z,1.35
2022-10-06T09:39:44.406Z,0.55
2022-10-06T09:42:29.510Z,1.10
2022-10-06T09:45:05.982Z,1.07
2022-10-06T09:47:40.040Z,0.70
2022-10-06T09:50:11.848Z,0.80
2022-10-06T09:52:39.240Z,0.55
2022-10-06T09:55:17.750Z,0.60
2022-10-06T09:57:52.969Z,0.70
2022-10-06T10:00:27.028Z,0.70
2022-10-06T10:03:12.149Z,0.70
2022-10-06T10:05:46.029Z,0.60
2022-10-06T10:08:23.835Z,0.55
2022-10-06T10:11:30.440Z,0.57
2022-10-06T10:13:57.819Z,0.50
2022-10-06T10:16:27.033Z,0.80
2022-10-06T10:18:53.652Z,0.52
2022-10-06T10:21:29.688Z,0.65
2022-10-06T10:24:02.157Z,0.90
2022-10-06T10:26:54.421Z,0.80
2022-10-06T10:29:49.947Z,0.63
2022-10-06T10:32:23.213Z,0.68
2022-10-06T10:35:01.850Z,0.90
2022-10-06T10:37:38.125Z,0.47
2022-10-06T10:40:29.342Z,0.70
2022-10-06T10:43:05.997Z,0.77
2022-10-06T10:45:34.977Z,0.68
2022-10-06T10:48:07.087Z,0.80
2022-10-06T10:50:42.815Z,0.67
2022-10-06T10:55:48.888Z,0.45
2022-10-06T10:58:49.204Z,0.50
2022-10-06T11:01:23.473Z,0.60
2022-10-06T11:03:59.035Z,0.30
2022-10-06T11:07:03.068Z,0.45
2022-10-06T11:09:51.142Z,0.50
2022-10-06T11:12:46.635Z,1.95
2022-10-06T11:15:41.615Z,0.60
2022-10-06T11:18:41.344Z,0.87
2022-10-06T11:21:18.726Z,0.82
2022-10-06T11:24:09.540Z,0.47
2022-10-06T11:27:03.072Z,1.00
2022-10-06T11:29:37.368Z,1.00
2022-10-06T11:32:25.065Z,1.00
2022-10-06T11:34:52.278Z,0.75
2022-10-06T11:37:30.660Z,0.80
2022-10-06T11:40:18.192Z,0.52
2022-10-06T11:42:52.476Z,0.47
2022-10-06T11:45:28.222Z,0.80
2022-10-06T11:48:22.339Z,0.70
2022-10-06T11:50:52.017Z,0.50
2022-10-06T11:53:24.445Z,0.77
2022-10-06T11:56:16.453Z,0.70
2022-10-06T11:58:51.932Z,1.00
2022-10-06T12:01:44.627Z,0.50
2022-10-06T12:04:10.933Z,0.50
2022-10-06T12:06:46.339Z,0.60
2022-10-06T12:09:38.503Z,0.60
2022-10-06T12:12:19.713Z,0.40
2022-10-06T12:18:13.314Z,0.60
2022-10-06T12:20:52.772Z,0.40
2022-10-06T12:23:31.181Z,0.70
2022-10-06T12:26:07.308Z,0.50
2022-10-06T12:28:44.588Z,0.70
2022-10-06T12:31:22.809Z,1.00
2022-10-06T12:33:50.414Z,0.60
2022-10-06T12:36:31.723Z,0.80
2022-10-06T12:39:09.790Z,0.70
2022-10-06T12:41:58.434Z,0.50
2022-10-06T12:44:29.728Z,0.70
2022-10-06T12:47:01.661Z,0.80
2022-10-06T12:49:36.944Z,0.50
2022-10-06T12:52:26.321Z,0.50
2022-10-06T12:55:18.944Z,0.43
2022-10-06T12:57:48.408Z,0.47
2022-10-06T13:00:47.164Z,0.85
2022-10-06T13:03:25.461Z,0.50
2022-10-06T13:05:55.943Z,0.70
2022-10-06T13:08:25.196Z,0.43
2022-10-06T13:11:10.002Z,0.40
2022-10-06T13:13:38.197Z,0.68
2022-10-06T13:16:04.673Z,0.50
2022-10-06T13:18:32.721Z,0.30
2022-10-06T13:21:00.860Z,0.40
2022-10-06T13:23:29.325Z,0.40
2022-10-06T13:26:01.025Z,0.63
2022-10-06T13:28:36.426Z,0.65
2022-10-06T13:31:15.028Z,0.57
2022-10-06T13:33:44.215Z,0.50
2022-10-06T13:36:12.335Z,0.57
2022-10-06T13:38:41.082Z,0.85
2022-10-06T13:41:17.263Z,1.00
2022-10-06T13:43:51.386Z,0.47
2022-10-06T13:46:21.951Z,0.60
2022-10-06T13:48:57.831Z,0.40
2022-10-06T13:51:29.695Z,0.75
2022-10-06T13:54:01.255Z,0.65
2022-10-06T13:56:38.352Z,0.50
2022-10-06T13:59:33.836Z,0.50
2022-10-06T14:02:20.796Z,0.57
2022-10-06T14:05:26.358Z,0.40
2022-10-06T14:08:14.550Z,0.45
2022-10-06T14:10:40.851Z,0.50
2022-10-06T14:13:10.384Z,0.52
2022-10-06T14:15:46.694Z,0.50
2022-10-06T14:18:20.643Z,0.60
2022-10-06T14:20:51.064Z,0.50
2022-10-06T14:23:49.681Z,0.30
2022-10-06T14:26:18.920Z,0.60
2022-10-06T14:28:53.803Z,0.50
2022-10-06T14:31:22.441Z,0.30
2022-10-06T14:33:52.582Z,0.65
2022-10-06T14:36:27.165Z,0.50
2022-10-06T14:38:55.345Z,0.60
2022-10-06T14:41:27.554Z,0.40
2022-10-06T14:43:55.107Z,0.35
2022-10-06T14:46:22.379Z,0.65
2022-10-06T14:48:48.871Z,0.40
2022-10-06T14:51:16.682Z,0.60
2022-10-06T14:53:43.016Z,0.50
2022-10-06T14:56:14.198Z,0.50
2022-10-06T14:58:44.836Z,0.50
2022-10-06T15:01:14.300Z,0.60
2022-10-06T15:03:42.643Z,0.70
2022-10-06T15:06:30.572Z,0.40
2022-10-06T15:08:58.752Z,0.55
2022-10-06T15:11:28.417Z,0.50
2022-10-06T15:13:57.938Z,0.57
2022-10-06T15:16:25.735Z,0.38
2022-10-06T15:18:52.650Z,0.50
2022-10-06T15:21:20.481Z,0.43
2022-10-06T15:23:48.861Z,0.55
2022-10-06T15:26:33.512Z,0.40
2022-10-06T15:29:05.726Z,0.60
2022-10-06T15:31:35.371Z,0.40
2022-10-06T15:34:03.896Z,0.32
2022-10-06T15:36:36.042Z,0.50
2022-10-06T15:39:08.064Z,0.40
2022-10-06T15:41:35.739Z,0.40
2022-10-06T15:44:03.396Z,0.30
2022-10-06T15:46:34.382Z,0.98
2022-10-06T15:49:03.977Z,0.30
2022-10-06T15:51:36.475Z,0.30
2022-10-06T15:54:02.963Z,0.40
2022-10-06T15:56:31.654Z,0.50
2022-10-06T15:58:59.334Z,0.45
2022-10-06T16:01:32.206Z,0.60
2022-10-06T16:04:01.732Z,0.50
2022-10-06T16:06:40.568Z,0.60
2022-10-06T16:09:11.852Z,0.30
2022-10-06T16:11:38.675Z,0.40
2022-10-06T16:14:06.085Z,0.40
2022-10-06T16:16:32.527Z,0.60
2022-10-06T16:18:58.912Z,0.40
2022-10-06T16:21:25.440Z,0.50
2022-10-06T16:23:53.357Z,0.30
2022-10-06T16:26:20.741Z,0.47
2022-10-06T16:28:47.127Z,0.50
2022-10-06T16:31:13.582Z,0.43
2022-10-06T16:33:39.971Z,0.70
2022-10-06T16:36:06.608Z,0.55
2022-10-06T16:38:33.064Z,0.57
2022-10-06T16:41:01.614Z,0.30
2022-10-06T16:43:36.541Z,0.82
2022-10-06T16:46:06.000Z,0.43
2022-10-06T16:48:34.955Z,0.40
2022-10-06T16:51:09.099Z,0.70
2022-10-06T16:53:40.121Z,0.50
2022-10-06T16:56:08.759Z,0.43
2022-10-06T16:58:40.008Z,0.60
2022-10-06T17:01:07.121Z,0.50
2022-10-06T17:03:33.805Z,0.50
2022-10-06T17:06:14.927Z,0.63
2022-10-06T17:08:42.425Z,0.40
2022-10-06T17:11:15.085Z,0.40
2022-10-06T17:13:43.732Z,0.47
2022-10-06T17:16:13.815Z,0.35
2022-10-06T17:18:40.523Z,0.40
2022-10-06T17:21:32.325Z,0.50
2022-10-06T17:23:59.353Z,0.90
2022-10-06T17:26:28.231Z,0.98
2022-10-06T17:28:57.025Z,1.05
2022-10-06T17:31:28.016Z,1.03
2022-10-06T17:33:55.631Z,1.45
2022-10-06T17:36:24.247Z,1.02
2022-10-06T17:38:57.633Z,1.27
2022-10-06T17:41:32.937Z,0.95
2022-10-06T17:44:03.147Z,0.70
2022-10-06T17:46:37.465Z,0.63
2022-10-06T17:49:09.842Z,0.90
2022-10-06T17:51:38.840Z,0.70
2022-10-06T17:54:07.784Z,0.85
2022-10-06T17:56:34.957Z,1.00
2022-10-06T17:59:07.475Z,1.08
2022-10-06T18:01:35.620Z,1.60
2022-10-06T18:04:04.566Z,1.95
2022-10-06T18:06:34.067Z,2.15
2022-10-06T18:09:02.281Z,2.60
2022-10-06T18:11:35.653Z,2.38
2022-10-06T18:14:13.158Z,2.53
2022-10-06T18:16:57.320Z,1.80
2022-10-06T18:19:26.682Z,2.08
2022-10-06T18:21:58.715Z,1.57
2022-10-06T18:24:27.337Z,1.50
2022-10-06T18:26:55.601Z,1.30
2022-10-06T18:29:25.547Z,1.17
2022-10-06T18:31:53.514Z,1.00
2022-10-06T18:37:06.468Z,0.90
2022-10-06T18:39:33.425Z,1.20
2022-10-06T18:42:02.760Z,0.77
2022-10-06T18:44:47.736Z,0.90
2022-10-06T18:47:32.277Z,1.00
2022-10-06T18:49:58.588Z,1.17
2022-10-06T18:52:24.896Z,1.63
2022-10-06T18:54:52.268Z,0.95
2022-10-06T18:57:18.567Z,1.38
2022-10-06T18:59:45.015Z,1.63
2022-10-06T19:02:11.717Z,1.20
2022-10-06T19:04:39.282Z,1.85
2022-10-06T19:07:05.794Z,1.20
2022-10-06T19:09:32.108Z,1.92
2022-10-06T19:11:58.815Z,1.17
2022-10-06T19:14:32.380Z,1.45
2022-10-06T19:17:02.016Z,1.65
2022-10-06T19:19:29.473Z,1.83
2022-10-06T19:22:01.474Z,1.75
2022-10-06T19:24:30.906Z,1.87
2022-10-06T19:26:58.730Z,1.20
2022-10-06T19:29:26.691Z,1.83
2022-10-06T19:31:56.341Z,1.73
2022-10-06T19:34:24.324Z,1.70
2022-10-06T19:36:53.797Z,1.57
2022-10-06T19:39:26.873Z,1.40
2022-10-06T19:42:12.519Z,1.95
2022-10-06T19:44:43.015Z,1.83
2022-10-06T19:47:14.066Z,1.60
2022-10-06T19:49:41.414Z,2.07
2022-10-06T19:52:09.594Z,1.40
2022-10-06T19:54:36.467Z,2.22
2022-10-06T19:57:05.655Z,1.45
2022-10-06T19:59:32.422Z,1.60
2022-10-06T20:01:58.731Z,2.00
2022-10-06T20:04:25.513Z,1.55
2022-10-06T20:06:52.354Z,1.70
2022-10-06T20:09:21.568Z,1.77
2022-10-06T20:11:49.163Z,1.90
2022-10-06T20:14:23.217Z,1.70
2022-10-06T20:16:51.596Z,2.20
2022-10-06T20:19:19.282Z,2.13
2022-10-06T20:21:46.306Z,1.70
2022-10-06T20:24:24.698Z,1.70
2022-10-06T20:26:52.451Z,1.77
2022-10-06T20:29:25.032Z,1.80
2022-10-06T20:31:53.892Z,2.03
2022-10-06T20:34:23.769Z,2.35
2022-10-06T20:36:54.805Z,1.85
2022-10-06T20:39:41.883Z,2.07
2022-10-06T20:42:13.971Z,1.73
2022-10-06T20:44:42.198Z,1.90
2022-10-06T20:47:09.004Z,2.20
2022-10-06T20:49:35.496Z,2.15
2022-10-06T20:52:03.101Z,2.27
2022-10-06T20:54:35.928Z,1.98
2022-10-06T20:57:04.460Z,2.30
2022-10-06T20:59:31.771Z,2.15
2022-10-06T21:01:59.917Z,1.90
2022-10-06T21:04:27.409Z,2.27
2022-10-06T21:06:53.919Z,1.90
2022-10-06T21:09:20.317Z,2.58
2022-10-06T21:11:47.900Z,2.00
2022-10-06T21:14:14.885Z,2.35
2022-10-06T21:16:44.229Z,2.10
2022-10-06T21:19:19.066Z,2.03
2022-10-06T21:21:51.618Z,1.90
2022-10-06T21:24:17.993Z,2.35
2022-10-06T21:26:44.359Z,2.55
2022-10-06T21:29:15.155Z,2.50
2022-10-06T21:31:42.265Z,2.83
2022-10-06T21:34:08.984Z,2.30
2022-10-06T21:36:35.331Z,2.33
2022-10-06T21:39:04.438Z,2.28
2022-10-06T21:41:36.023Z,2.13
2022-10-06T21:44:13.991Z,2.05
2022-10-06T21:46:45.263Z,2.05
2022-10-06T21:49:13.803Z,2.30
2022-10-06T21:51:43.643Z,2.17
2022-10-06T21:54:12.535Z,2.10
2022-10-06T21:56:39.203Z,2.03
2022-10-06T21:59:05.796Z,2.00
2022-10-06T22:01:34.716Z,1.95
2022-10-06T22:04:01.345Z,2.13
2022-10-06T22:06:28.890Z,2.20
2022-10-06T22:08:56.294Z,2.03
2022-10-06T22:11:27.475Z,2.90
2022-10-06T22:13:56.266Z,2.38
2022-10-06T22:16:24.877Z,2.13
2022-10-06T22:18:51.654Z,2.07
2022-10-06T22:21:19.967Z,2.30
2022-10-06T22:23:52.711Z,2.70
2022-10-06T22:26:19.082Z,2.22
2022-10-06T22:28:47.400Z,2.30
2022-10-06T22:31:15.611Z,1.87
2022-10-06T22:33:43.286Z,1.65
2022-10-06T22:36:12.279Z,1.90
2022-10-06T22:38:39.271Z,1.70
2022-10-06T22:41:08.479Z,2.58
2022-10-06T22:43:35.411Z,1.67
2022-10-06T22:46:02.512Z,2.75
2022-10-06T22:48:28.973Z,2.58
2022-10-06T22:50:55.285Z,1.67
2022-10-06T22:53:24.225Z,2.38
2022-10-06T22:55:51.057Z,2.10
2022-10-06T22:58:18.529Z,2.20
2022-10-06T23:00:45.559Z,2.10
2022-10-06T23:03:12.135Z,2.00
2022-10-06T23:05:38.758Z,2.45
2022-10-06T23:08:06.858Z,2.53
2022-10-06T23:10:36.708Z,2.30
2022-10-06T23:13:03.133Z,2.33
2022-10-06T23:15:29.966Z,1.90
2022-10-06T23:17:56.366Z,1.92
2022-10-06T23:20:22.667Z,2.20
2022-10-06T23:22:49.015Z,1.95
2022-10-06T23:25:15.746Z,1.90
2022-10-06T23:27:42.248Z,2.30
2022-10-06T23:30:09.973Z,2.00
2022-10-06T23:32:37.398Z,2.73
2022-10-06T23:35:04.408Z,1.60
2022-10-06T23:37:30.759Z,1.75
2022-10-06T23:39:57.077Z,2.00
2022-10-06T23:42:23.404Z,1.90
2022-10-06T23:44:49.714Z,1.90
2022-10-06T23:47:16.074Z,1.83
2022-10-06T23:49:43.511Z,1.88
2022-10-06T23:52:10.197Z,1.60
2022-10-06T23:54:36.530Z,1.90
2022-10-06T23:57:03.310Z,2.17
2022-10-06T23:59:29.668Z,2.00
